Time;durP1;ratioP1;P1;durP2;ratioP2;P2;SDS_P1;SDS_P2;PMS_P1;PMS_P2;Temp;Humidity;BMP_temperature;BMP_pressure;BME280_temperature;BME280_humidity;BME280_pressure;Samples;Min_cycle;Max_cycle;Signal;HPM_P1;HPM_P2
2023/11/13 00:01:30;;;;;;;;;;;;;;;10.08;100.00;99243.94;5032655;28;20388;-70
2023/11/13 00:03:56;;;;;;;;;;;;;;;10.22;100.00;99246.47;5032642;28;19913;-70
2023/11/13 00:06:21;;;;;;;;;;;;;;;10.20;100.00;99250.78;5032244;28;19917;-70
2023/11/13 00:08:46;;;;;;;;;;;;;;;9.95;100.00;99258.94;5032012;28;20366;-70
2023/11/13 00:11:13;;;;;;;;;;;;;;;9.54;100.00;99266.84;5032293;28;19920;-70
2023/11/13 00:13:38;;;;;;;;;;;;;;;9.77;100.00;99261.00;5031402;28;20410;-70
2023/11/13 00:16:04;;;;;;;;;;;;;;;10.02;100.00;99264.84;5030797;28;19921;-70
2023/11/13 00:18:30;;;;;;;;;;;;;;;9.90;100.00;99265.56;5031896;28;19923;-70
2023/11/13 00:20:55;;;;;;;;;;;;;;;9.91;100.00;99267.19;5032172;28;19913;-70
2023/11/13 00:23:20;;;;;;;;;;;;;;;10.14;100.00;99280.91;5032184;28;20377;-70
2023/11/13 00:25:45;;;;;;;;;;;;;;;10.25;100.00;99270.16;5032009;28;19913;-70
2023/11/13 00:28:11;;;;;;;;;;;;;;;10.33;100.00;99265.66;5031816;28;20315;-70
2023/11/13 00:30:38;;;;;;;;;;;;;;;10.36;100.00;99279.78;5029251;28;20004;-70
2023/11/13 00:33:03;;;;;;;;;;;;;;;10.31;100.00;99279.16;5031909;28;20391;-70
2023/11/13 00:35:28;;;;;;;;;;;;;;;10.24;100.00;99296.47;5032012;28;19920;-70
2023/11/13 00:37:57;;;;;;;;;;;;;;;9.52;100.00;99299.84;5031999;28;19913;-70
2023/11/13 00:40:24;;;;;;;;;;;;;;;9.27;100.00;99293.97;5031693;28;19917;-70
2023/11/13 00:42:49;;;;;;;;;;;;;;;9.25;100.00;99299.06;5031977;28;20413;-70
2023/11/13 00:45:14;;;;;;;;;;;;;;;9.43;100.00;99307.44;5028763;28;19913;-70
2023/11/13 00:47:40;;;;;;;;;;;;;;;9.51;100.00;99310.22;5029302;28;19940;-70
2023/11/13 00:50:06;;;;;;;;;;;;;;;9.30;100.00;99309.25;5031881;28;19924;-70
2023/11/13 00:52:31;;;;;;;;;;;;;;;8.98;100.00;99303.84;5031631;28;19916;-70
2023/11/13 00:54:57;;;;;;;;;;;;;;;8.88;100.00;99296.66;5030612;28;19937;-70
2023/11/13 00:57:22;;;;;;;;;;;;;;;8.82;100.00;99297.94;5031783;28;19913;-70
2023/11/13 00:59:48;;;;;;;;;;;;;;;8.69;100.00;99303.34;5030852;28;20354;-70
2023/11/13 01:02:13;;;;;;;;;;;;;;;8.87;100.00;99322.06;5030740;28;20011;-70
2023/11/13 01:04:39;;;;;;;;;;;;;;;9.03;100.00;99322.41;5029346;28;19919;-70
2023/11/13 01:07:04;;;;;;;;;;;;;;;9.14;100.00;99306.97;5031483;28;19917;-70
2023/11/13 01:09:29;;;;;;;;;;;;;;;9.33;100.00;99295.47;5031700;28;19917;-70
2023/11/13 01:11:55;;;;;;;;;;;;;;;9.29;100.00;99294.50;5031599;28;20384;-70
2023/11/13 01:14:20;;;;;;;;;;;;;;;9.41;100.00;99280.69;5030212;28;20016;-70
2023/11/13 01:16:45;;;;;;;;;;;;;;;9.63;100.00;99278.00;5031636;28;19913;-70
2023/11/13 01:19:11;;;;;;;;;;;;;;;9.63;100.00;99284.38;5029436;28;20016;-70
2023/11/13 01:21:37;;;;;;;;;;;;;;;9.72;100.00;99275.16;5030277;28;19957;-70
2023/11/13 01:24:02;;;;;;;;;;;;;;;9.64;100.00;99272.03;5031507;28;19971;-70
2023/11/13 01:26:27;;;;;;;;;;;;;;;9.74;100.00;99276.47;5029980;28;19917;-70
2023/11/13 01:28:53;;;;;;;;;;;;;;;9.68;100.00;99258.25;5031294;28;20396;-70
2023/11/13 01:31:18;;;;;;;;;;;;;;;9.63;100.00;99261.22;5030427;28;19917;-70
2023/11/13 01:33:43;;;;;;;;;;;;;;;9.56;100.00;99264.53;5031408;28;19917;-70
2023/11/13 01:36:09;;;;;;;;;;;;;;;9.50;100.00;99271.44;5022684;28;19921;-70
2023/11/13 01:38:34;;;;;;;;;;;;;;;9.44;100.00;99276.38;5011678;28;19944;-70
2023/11/13 01:40:59;;;;;;;;;;;;;;;9.37;100.00;99281.66;5030056;28;19920;-70
2023/11/13 01:43:25;;;;;;;;;;;;;;;9.48;100.00;99282.13;5031342;28;19920;-70
2023/11/13 01:45:54;;;;;;;;;;;;;;;9.59;100.00;99286.19;5027429;28;20020;-70
2023/11/13 01:48:20;;;;;;;;;;;;;;;9.58;100.00;99286.53;5031157;28;20363;-70
2023/11/13 01:50:47;;;;;;;;;;;;;;;9.59;100.00;99291.78;5031293;28;19956;-70
2023/11/13 01:53:14;;;;;;;;;;;;;;;9.55;100.00;99282.44;5033532;28;19917;-70
2023/11/13 01:55:40;;;;;;;;;;;;;;;9.29;100.00;99282.50;5034145;28;19923;-70
2023/11/13 01:58:05;;;;;;;;;;;;;;;9.29;100.00;99290.88;5035019;28;19914;-70
2023/11/13 02:00:32;;;;;;;;;;;;;;;9.09;100.00;99277.28;5034807;28;19967;-70
2023/11/13 02:02:58;;;;;;;;;;;;;;;8.95;100.00;99276.63;5016700;28;20315;-70
2023/11/13 02:05:23;;;;;;;;;;;;;;;8.91;100.00;99273.66;5017947;28;19917;-70
2023/11/13 02:07:49;;;;;;;;;;;;;;;8.99;100.00;99275.66;5034196;28;19933;-70
2023/11/13 02:10:15;;;;;;;;;;;;;;;9.11;100.00;99272.19;5033325;28;19924;-70
2023/11/13 02:12:40;;;;;;;;;;;;;;;9.40;100.00;99269.84;5034196;28;20293;-70
2023/11/13 02:15:07;;;;;;;;;;;;;;;9.54;100.00;99278.81;5034322;28;20241;-70
2023/11/13 02:17:32;;;;;;;;;;;;;;;9.35;100.00;99268.03;5030364;28;20363;-70
2023/11/13 02:19:58;;;;;;;;;;;;;;;9.44;100.00;99272.78;5014906;28;19924;-70
2023/11/13 02:22:23;;;;;;;;;;;;;;;9.10;100.00;99269.69;5014822;28;19960;-70
2023/11/13 02:24:50;;;;;;;;;;;;;;;9.07;100.00;99265.63;5014551;28;20002;-70
2023/11/13 02:27:18;;;;;;;;;;;;;;;9.07;100.00;99274.00;5032783;28;19936;-70
2023/11/13 02:29:43;;;;;;;;;;;;;;;9.22;100.00;99269.84;5034320;28;19917;-70
2023/11/13 02:32:09;;;;;;;;;;;;;;;9.54;100.00;99276.03;5034488;28;20375;-70
2023/11/13 02:34:34;;;;;;;;;;;;;;;9.75;100.00;99277.28;5025169;28;19922;-70
2023/11/13 02:36:59;;;;;;;;;;;;;;;9.82;100.00;99274.78;5014485;28;20380;-70
2023/11/13 02:39:25;;;;;;;;;;;;;;;9.82;100.00;99270.00;5014434;28;19964;-70
2023/11/13 02:41:51;;;;;;;;;;;;;;;9.95;100.00;99267.31;5027692;28;19917;-70
2023/11/13 02:44:17;;;;;;;;;;;;;;;9.85;100.00;99268.53;5034254;28;20323;-70
2023/11/13 02:46:42;;;;;;;;;;;;;;;9.71;100.00;99270.72;5033864;28;19924;-70
2023/11/13 02:49:08;;;;;;;;;;;;;;;9.89;100.00;99269.50;5033407;28;19917;-70
2023/11/13 02:51:33;;;;;;;;;;;;;;;10.04;100.00;99264.50;5014168;28;19913;-70
2023/11/13 02:53:59;;;;;;;;;;;;;;;10.16;100.00;99263.78;5014027;28;19918;-70
2023/11/13 02:56:24;;;;;;;;;;;;;;;10.11;100.00;99271.22;5026409;28;19917;-70
2023/11/13 02:58:50;;;;;;;;;;;;;;;10.16;100.00;99267.41;5033748;28;19920;-70
2023/11/13 03:01:15;;;;;;;;;;;;;;;10.21;100.00;99275.59;5033896;28;20022;-70
2023/11/13 03:03:42;;;;;;;;;;;;;;;10.04;100.00;99278.47;5032307;28;19913;-70
2023/11/13 03:06:07;;;;;;;;;;;;;;;9.96;100.00;99275.38;5032221;28;19917;-70
2023/11/13 03:08:32;;;;;;;;;;;;;;;10.03;100.00;99274.06;5021262;28;19918;-70
2023/11/13 03:10:57;;;;;;;;;;;;;;;10.14;100.00;99272.53;5025480;28;19921;-70
2023/11/13 03:13:23;;;;;;;;;;;;;;;10.19;100.00;99263.94;5033449;28;20016;-70
2023/11/13 03:15:48;;;;;;;;;;;;;;;10.23;100.00;99276.06;5033619;28;19920;-70
2023/11/13 03:18:14;;;;;;;;;;;;;;;10.10;100.00;99280.75;5033509;28;19963;-70
2023/11/13 03:20:40;;;;;;;;;;;;;;;10.18;100.00;99270.69;5033411;28;19925;-70
2023/11/13 03:23:05;;;;;;;;;;;;;;;10.22;100.00;99280.00;5033406;28;19936;-70
2023/11/13 03:25:31;;;;;;;;;;;;;;;10.20;100.00;99279.53;5030441;28;19917;-70
2023/11/13 03:27:56;;;;;;;;;;;;;;;9.94;100.00;99276.88;5032673;28;19986;-70
2023/11/13 03:30:21;;;;;;;;;;;;;;;9.66;100.00;99275.34;5033011;28;19919;-70
2023/11/13 03:32:47;;;;;;;;;;;;;;;9.62;100.00;99271.56;5016427;28;19964;-69
2023/11/13 03:35:16;;;;;;;;;;;;;;;9.80;100.00;99277.91;5023160;28;19916;-70
2023/11/13 03:37:41;;;;;;;;;;;;;;;9.93;100.00;99278.84;5033052;28;19924;-70
2023/11/13 03:40:07;;;;;;;;;;;;;;;10.05;100.00;99278.13;5031034;28;19921;-70
2023/11/13 03:42:33;;;;;;;;;;;;;;;10.14;100.00;99275.31;5033095;28;19913;-70
2023/11/13 03:44:58;;;;;;;;;;;;;;;10.19;100.00;99263.94;5031552;28;19913;-70
2023/11/13 03:47:23;;;;;;;;;;;;;;;10.26;100.00;99271.78;5032972;28;19920;-70
2023/11/13 03:49:48;;;;;;;;;;;;;;;10.29;100.00;99281.47;5032728;28;19913;-70
2023/11/13 03:52:14;;;;;;;;;;;;;;;10.30;100.00;99283.13;5032889;28;20427;-70
2023/11/13 03:54:40;;;;;;;;;;;;;;;10.32;100.00;99287.22;5031628;28;19960;-70
2023/11/13 03:57:05;;;;;;;;;;;;;;;10.13;100.00;99295.19;5031027;28;20006;-70
2023/11/13 03:59:31;;;;;;;;;;;;;;;10.18;100.00;99290.25;5020792;28;19917;-70
2023/11/13 04:01:56;;;;;;;;;;;;;;;10.20;100.00;99293.50;5032658;28;20395;-70
2023/11/13 04:04:21;;;;;;;;;;;;;;;10.20;100.00;99292.72;5032401;28;20376;-70
2023/11/13 04:06:49;;;;;;;;;;;;;;;10.30;100.00;99288.69;5032613;28;19913;-70
2023/11/13 04:09:16;;;;;;;;;;;;;;;10.21;100.00;99292.34;5031478;28;19917;-69
2023/11/13 04:11:41;;;;;;;;;;;;;;;10.11;100.00;99282.38;5032461;28;20300;-70
2023/11/13 04:14:06;;;;;;;;;;;;;;;10.22;100.00;99294.00;5032292;28;19974;-70
2023/11/13 04:16:32;;;;;;;;;;;;;;;10.15;100.00;99293.72;5030395;28;20004;-70
2023/11/13 04:18:57;;;;;;;;;;;;;;;9.94;100.00;99290.84;5031067;28;19947;-69
2023/11/13 04:21:22;;;;;;;;;;;;;;;9.96;100.00;99289.34;5027161;28;19913;-70
2023/11/13 04:23:48;;;;;;;;;;;;;;;9.80;100.00;99299.44;5026168;28;20002;-70
2023/11/13 04:26:13;;;;;;;;;;;;;;;9.49;100.00;99300.50;5032266;28;19920;-70
2023/11/13 04:28:38;;;;;;;;;;;;;;;9.02;100.00;99302.03;5032126;28;19921;-70
2023/11/13 04:31:04;;;;;;;;;;;;;;;9.05;100.00;99303.38;5030327;28;19917;-70
2023/11/13 04:33:29;;;;;;;;;;;;;;;9.08;100.00;99292.38;5020845;28;20308;-70
2023/11/13 04:35:54;;;;;;;;;;;;;;;9.10;100.00;99301.22;5020832;28;19975;-70
2023/11/13 04:38:20;;;;;;;;;;;;;;;9.15;100.00;99296.63;5029690;28;19917;-70
2023/11/13 04:40:45;;;;;;;;;;;;;;;9.28;100.00;99306.78;5031121;28;19917;-70
2023/11/13 04:43:11;;;;;;;;;;;;;;;8.96;100.00;99309.75;5031645;28;19919;-70
2023/11/13 04:45:37;;;;;;;;;;;;;;;9.10;100.00;99314.34;5017698;28;20020;-70
2023/11/13 04:48:02;;;;;;;;;;;;;;;9.16;100.00;99309.41;5013959;28;19972;-70
2023/11/13 04:50:28;;;;;;;;;;;;;;;9.24;100.00;99306.66;5020166;28;19921;-69
2023/11/13 04:52:53;;;;;;;;;;;;;;;9.17;100.00;99319.44;5018425;28;19967;-69
2023/11/13 04:55:18;;;;;;;;;;;;;;;8.99;100.00;99325.03;5031798;28;19917;-69
2023/11/13 04:57:44;;;;;;;;;;;;;;;8.70;100.00;99327.31;5017806;28;20388;-69
2023/11/13 05:00:12;;;;;;;;;;;;;;;8.69;100.00;99333.22;5027161;28;19956;-70
2023/11/13 05:02:38;;;;;;;;;;;;;;;8.60;100.00;99329.59;5026545;28;19932;-69
2023/11/13 05:05:07;;;;;;;;;;;;;;;8.77;100.00;99343.53;5023267;28;20000;-70
2023/11/13 05:07:33;;;;;;;;;;;;;;;8.78;100.00;99341.59;5028422;28;19966;-70
2023/11/13 05:09:59;;;;;;;;;;;;;;;8.97;100.00;99338.50;5031400;28;19917;-70
2023/11/13 05:12:24;;;;;;;;;;;;;;;9.05;100.00;99343.25;5030479;28;20319;-70
2023/11/13 05:14:49;;;;;;;;;;;;;;;9.06;100.00;99353.28;5031377;28;19928;-70
2023/11/13 05:17:15;;;;;;;;;;;;;;;9.10;100.00;99357.03;5021175;28;19956;-70
2023/11/13 05:19:40;;;;;;;;;;;;;;;8.99;100.00;99355.72;5011838;28;19913;-70
2023/11/13 05:22:06;;;;;;;;;;;;;;;8.92;100.00;99364.56;5016350;28;19917;-70
2023/11/13 05:24:31;;;;;;;;;;;;;;;9.05;100.00;99370.31;5031298;28;19917;-70
2023/11/13 05:26:56;;;;;;;;;;;;;;;9.07;100.00;99368.03;5023780;28;19917;-70
2023/11/13 05:29:23;;;;;;;;;;;;;;;9.14;100.00;99371.16;5028741;28;20003;-70
2023/11/13 05:31:49;;;;;;;;;;;;;;;9.19;100.00;99370.19;5028812;28;19987;-70
2023/11/13 05:34:14;;;;;;;;;;;;;;;8.87;100.00;99378.69;5033034;28;19925;-70
2023/11/13 05:36:39;;;;;;;;;;;;;;;8.94;100.00;99387.38;5033685;28;19917;-70
2023/11/13 05:39:06;;;;;;;;;;;;;;;8.77;100.00;99399.31;5035302;28;19964;-70
2023/11/13 05:41:32;;;;;;;;;;;;;;;8.72;100.00;99393.91;5030237;28;19967;-70
2023/11/13 05:43:58;;;;;;;;;;;;;;;8.68;100.00;99406.84;5015411;28;20351;-70
2023/11/13 05:46:23;;;;;;;;;;;;;;;8.79;100.00;99399.81;5024013;28;19983;-70
2023/11/13 05:48:49;;;;;;;;;;;;;;;8.78;100.00;99406.53;5033620;28;19982;-70
2023/11/13 05:51:14;;;;;;;;;;;;;;;8.94;100.00;99408.88;5031770;28;19913;-70
2023/11/13 05:53:40;;;;;;;;;;;;;;;8.90;100.00;99402.31;5027730;28;19921;-70
2023/11/13 05:56:05;;;;;;;;;;;;;;;8.80;100.00;99409.81;5033686;28;19921;-70
2023/11/13 05:58:31;;;;;;;;;;;;;;;8.82;100.00;99410.34;5015267;28;19913;-70
2023/11/13 06:00:57;;;;;;;;;;;;;;;8.80;100.00;99411.81;5018228;28;19925;-70
2023/11/13 06:03:22;;;;;;;;;;;;;;;8.61;100.00;99424.03;5027113;28;20396;-70
2023/11/13 06:05:48;;;;;;;;;;;;;;;8.44;100.00;99419.19;5034847;28;19924;-69
2023/11/13 06:08:14;;;;;;;;;;;;;;;8.54;100.00;99416.16;5024785;28;19917;-69
2023/11/13 06:10:39;;;;;;;;;;;;;;;8.51;100.00;99416.81;5033450;28;20015;-69
2023/11/13 06:13:06;;;;;;;;;;;;;;;8.52;100.00;99409.28;5022091;28;19921;-70
2023/11/13 06:15:31;;;;;;;;;;;;;;;8.69;100.00;99419.66;5034691;28;19979;-69
2023/11/13 06:17:57;;;;;;;;;;;;;;;8.85;100.00;99417.22;5027657;28;19917;-71
2023/11/13 06:20:23;;;;;;;;;;;;;;;8.97;100.00;99414.63;5028680;28;19917;-72
2023/11/13 06:22:48;;;;;;;;;;;;;;;9.06;100.00;99434.19;5032705;28;19921;-72
2023/11/13 06:25:13;;;;;;;;;;;;;;;9.19;100.00;99446.34;5032351;28;20300;-69
2023/11/13 06:27:39;;;;;;;;;;;;;;;9.20;100.00;99442.38;5026110;28;19922;-72
2023/11/13 06:30:05;;;;;;;;;;;;;;;9.24;100.00;99450.94;5031802;28;20395;-69
2023/11/13 06:32:31;;;;;;;;;;;;;;;9.24;100.00;99453.72;5020249;28;19955;-70
2023/11/13 06:34:56;;;;;;;;;;;;;;;9.31;100.00;99451.28;5030506;28;20015;-70
2023/11/13 06:37:21;;;;;;;;;;;;;;;9.35;100.00;99452.25;5036841;28;19925;-70
2023/11/13 06:39:47;;;;;;;;;;;;;;;9.11;100.00;99452.72;5028501;28;19928;-69
2023/11/13 06:42:13;;;;;;;;;;;;;;;9.15;100.00;99453.72;5026583;28;19927;-70
2023/11/13 06:44:38;;;;;;;;;;;;;;;9.18;100.00;99455.84;5027064;28;19928;-69
2023/11/13 06:47:04;;;;;;;;;;;;;;;9.05;100.00;99460.44;5028657;28;19917;-70
2023/11/13 06:49:30;;;;;;;;;;;;;;;8.89;100.00;99465.66;5030886;28;19993;-70
2023/11/13 06:51:55;;;;;;;;;;;;;;;8.94;100.00;99465.50;5023312;28;19925;-70
2023/11/13 06:54:20;;;;;;;;;;;;;;;9.06;100.00;99473.25;5029103;28;19983;-72
2023/11/13 06:56:48;;;;;;;;;;;;;;;9.07;100.00;99477.69;5021839;28;19921;-69
2023/11/13 06:59:13;;;;;;;;;;;;;;;9.10;100.00;99479.81;5029951;28;19940;-71
2023/11/13 07:01:42;;;;;;;;;;;;;;;9.06;100.00;99476.03;5026543;28;19929;-70
2023/11/13 07:04:10;;;;;;;;;;;;;;;9.12;100.00;99471.94;5024126;28;20342;-70
2023/11/13 07:06:39;;;;;;;;;;;;;;;9.19;100.00;99470.66;5024253;28;19928;-68
2023/11/13 07:09:11;;;;;;;;;;;;;;;9.21;100.00;99473.94;5027774;28;19982;-68
2023/11/13 07:11:43;;;;;;;;;;;;;;;9.24;100.00;99467.69;5026075;28;19924;-68
2023/11/13 07:14:09;;;;;;;;;;;;;;;9.32;100.00;99464.09;5025616;28;20036;-70
2023/11/13 07:16:35;;;;;;;;;;;;;;;9.38;100.00;99461.97;5028456;28;19956;-69
2023/11/13 07:19:00;;;;;;;;;;;;;;;9.54;100.00;99456.72;5028491;28;20309;-68
2023/11/13 07:21:26;;;;;;;;;;;;;;;9.53;100.00;99457.84;5027064;28;20337;-69
2023/11/13 07:23:52;;;;;;;;;;;;;;;9.51;100.00;99469.34;5025831;28;19960;-69
2023/11/13 07:26:17;;;;;;;;;;;;;;;9.49;100.00;99463.28;5030054;28;20358;-69
2023/11/13 07:28:43;;;;;;;;;;;;;;;9.47;100.00;99461.97;5028398;28;19925;-70
2023/11/13 07:31:08;;;;;;;;;;;;;;;9.65;100.00;99465.56;5029737;28;19945;-69
2023/11/13 07:33:33;;;;;;;;;;;;;;;9.79;100.00;99457.84;5029043;28;19928;-70
2023/11/13 07:35:59;;;;;;;;;;;;;;;9.94;100.00;99462.09;5029859;28;19925;-68
2023/11/13 07:38:24;;;;;;;;;;;;;;;10.04;100.00;99452.53;5029713;28;19924;-71
2023/11/13 07:40:50;;;;;;;;;;;;;;;10.17;100.00;99447.09;5026782;28;20628;-69
2023/11/13 07:43:15;;;;;;;;;;;;;;;10.40;100.00;99450.50;5022375;28;19978;-68
2023/11/13 07:45:42;;;;;;;;;;;;;;;10.37;100.00;99459.53;5027133;28;19917;-71
2023/11/13 07:48:08;;;;;;;;;;;;;;;10.51;100.00;99454.59;5029685;28;19917;-70
2023/11/13 07:50:34;;;;;;;;;;;;;;;10.44;100.00;99457.06;5022269;28;19921;-71
2023/11/13 07:53:00;;;;;;;;;;;;;;;10.59;100.00;99457.66;5016743;28;19921;-69
2023/11/13 07:55:25;;;;;;;;;;;;;;;10.49;100.00;99465.25;5026267;28;19924;-73
2023/11/13 07:57:52;;;;;;;;;;;;;;;10.62;100.00;99451.44;5017097;28;19961;-72
2023/11/13 08:00:23;;;;;;;;;;;;;;;10.73;99.89;99451.84;5028331;28;19913;-69
2023/11/13 08:02:49;;;;;;;;;;;;;;;10.66;98.55;99438.41;5024264;28;19929;-72
2023/11/13 08:05:16;;;;;;;;;;;;;;;10.89;98.29;99433.31;5025791;28;20423;-73
2023/11/13 08:07:42;;;;;;;;;;;;;;;10.94;98.06;99435.94;5024014;28;19928;-71
2023/11/13 08:10:12;;;;;;;;;;;;;;;10.61;95.51;99439.41;5026713;28;20415;-71
2023/11/13 08:12:38;;;;;;;;;;;;;;;10.66;96.58;99438.41;5027164;28;19921;-71
2023/11/13 08:15:04;;;;;;;;;;;;;;;10.79;93.99;99436.50;5025927;28;20013;-71
2023/11/13 08:17:31;;;;;;;;;;;;;;;11.03;94.79;99440.66;5028165;28;19924;-72
2023/11/13 08:19:59;;;;;;;;;;;;;;;11.23;93.90;99439.06;5027841;28;20310;-74
2023/11/13 08:22:24;;;;;;;;;;;;;;;10.85;92.48;99432.38;5025160;28;20066;-74
2023/11/13 08:24:49;;;;;;;;;;;;;;;11.04;91.75;99431.94;5009964;28;20008;-71
2023/11/13 08:27:15;;;;;;;;;;;;;;;11.03;91.53;99432.25;5012732;28;20434;-69
2023/11/13 08:29:44;;;;;;;;;;;;;;;11.36;91.46;99426.78;5027287;28;20861;-71
2023/11/13 08:32:09;;;;;;;;;;;;;;;11.42;90.40;99427.38;5027471;28;20016;-73
2023/11/13 08:34:34;;;;;;;;;;;;;;;11.46;89.76;99433.94;5027435;28;19921;-72
2023/11/13 08:37:02;;;;;;;;;;;;;;;11.55;88.50;99428.25;5028423;28;19966;-72
2023/11/13 08:39:28;;;;;;;;;;;;;;;11.47;87.95;99423.56;5028049;28;20471;-73
2023/11/13 08:41:55;;;;;;;;;;;;;;;11.50;88.33;99434.06;5025580;28;19917;-71
2023/11/13 08:44:20;;;;;;;;;;;;;;;11.45;87.73;99443.50;5026267;28;20319;-72
2023/11/13 08:46:45;;;;;;;;;;;;;;;11.09;89.75;99454.09;5023386;28;19928;-73
2023/11/13 08:49:14;;;;;;;;;;;;;;;11.22;88.20;99445.78;5023956;28;19956;-71
2023/11/13 08:51:40;;;;;;;;;;;;;;;11.40;87.29;99440.06;5019219;28;19929;-74
2023/11/13 08:54:05;;;;;;;;;;;;;;;11.73;88.45;99436.50;5009260;28;20301;-70
2023/11/13 08:56:31;;;;;;;;;;;;;;;11.62;87.57;99436.09;5025233;28;19940;-73
2023/11/13 08:58:58;;;;;;;;;;;;;;;11.77;86.07;99431.84;5030933;28;19924;-73
2023/11/13 09:01:28;;;;;;;;;;;;;;;12.28;84.74;99433.66;5030789;28;19975;-73
2023/11/13 09:03:54;;;;;;;;;;;;;;;12.72;84.22;99427.50;5011589;28;19956;-73
2023/11/13 09:06:20;;;;;;;;;;;;;;;13.06;82.08;99417.78;5030622;28;19917;-73
2023/11/13 09:08:48;;;;;;;;;;;;;;;13.30;79.09;99418.09;5031394;28;19967;-73
2023/11/13 09:11:19;;;;;;;;;;;;;;;13.51;77.79;99417.13;5031531;28;19920;-74
2023/11/13 09:13:46;;;;;;;;;;;;;;;13.75;77.39;99417.03;5025664;28;19921;-73
2023/11/13 09:16:11;;;;;;;;;;;;;;;13.94;75.95;99418.38;5031202;28;19923;-73
2023/11/13 09:18:37;;;;;;;;;;;;;;;13.86;72.87;99408.91;5020879;28;19917;-71
2023/11/13 09:21:02;;;;;;;;;;;;;;;13.37;72.97;99411.88;5018461;28;20316;-72
2023/11/13 09:23:28;;;;;;;;;;;;;;;13.55;74.12;99404.00;5019481;28;19990;-73
2023/11/13 09:25:53;;;;;;;;;;;;;;;13.68;73.21;99399.16;5031347;28;19914;-73
2023/11/13 09:28:19;;;;;;;;;;;;;;;14.01;71.43;99392.44;5029991;28;19931;-73
2023/11/13 09:30:44;;;;;;;;;;;;;;;14.24;71.80;99386.19;5031348;28;20450;-73
2023/11/13 09:33:10;;;;;;;;;;;;;;;14.26;72.53;99383.84;5023591;28;19921;-73
2023/11/13 09:35:36;;;;;;;;;;;;;;;14.44;73.40;99375.84;5030012;28;19975;-73
2023/11/13 09:38:01;;;;;;;;;;;;;;;14.56;71.71;99370.13;5028395;28;19917;-72
2023/11/13 09:40:34;;;;;;;;;;;;;;;14.71;70.91;99374.09;5031044;28;19924;-73
2023/11/13 09:43:12;;;;;;;;;;;;;;;14.66;69.07;99371.56;5029132;28;19940;-72
2023/11/13 09:45:41;;;;;;;;;;;;;;;14.87;67.77;99373.28;5030598;28;19917;-72
2023/11/13 09:48:07;;;;;;;;;;;;;;;14.99;65.98;99369.53;5041440;28;20007;-73
2023/11/13 09:50:33;;;;;;;;;;;;;;;15.09;65.37;99366.13;5037736;28;19956;-72
2023/11/13 09:52:59;;;;;;;;;;;;;;;15.18;64.74;99362.31;5036431;28;19928;-72
2023/11/13 09:55:26;;;;;;;;;;;;;;;15.17;64.61;99355.84;5028568;28;19925;-72
2023/11/13 09:57:52;;;;;;;;;;;;;;;15.36;64.76;99349.41;5031044;28;20327;-72
2023/11/13 10:00:18;;;;;;;;;;;;;;;15.15;64.63;99359.03;5030862;28;19925;-71
2023/11/13 10:02:46;;;;;;;;;;;;;;;15.33;65.29;99350.16;5043108;28;19967;-72
2023/11/13 10:05:12;;;;;;;;;;;;;;;15.39;64.21;99354.31;5030867;28;19975;-72
2023/11/13 10:07:39;;;;;;;;;;;;;;;15.63;64.65;99348.72;5033452;28;19971;-70
2023/11/13 10:10:06;;;;;;;;;;;;;;;15.69;63.30;99355.72;5041747;28;20328;-71
2023/11/13 10:12:31;;;;;;;;;;;;;;;15.69;61.45;99367.00;5039416;28;19924;-70
2023/11/13 10:15:12;;;;;;;;;;;;;;;15.77;62.08;99365.91;5037261;28;19921;-70
2023/11/13 10:17:41;;;;;;;;;;;;;;;15.85;61.84;99364.88;5036511;28;19913;-70
2023/11/13 10:20:07;;;;;;;;;;;;;;;15.91;61.23;99359.78;5049306;28;20347;-71
2023/11/13 10:22:32;;;;;;;;;;;;;;;16.09;60.09;99354.47;5031997;28;20059;-71
2023/11/13 10:24:58;;;;;;;;;;;;;;;15.77;58.54;99357.47;5033945;28;20352;-71
2023/11/13 10:27:23;;;;;;;;;;;;;;;15.19;60.41;99356.28;5033513;28;19925;-70
2023/11/13 10:29:51;;;;;;;;;;;;;;;14.79;59.04;99363.88;5031895;28;20038;-71
2023/11/13 10:32:29;;;;;;;;;;;;;;;14.89;59.71;99362.47;5028362;28;19924;-71
2023/11/13 10:34:54;;;;;;;;;;;;;;;14.92;59.11;99355.31;5033639;28;20343;-71
2023/11/13 10:37:20;;;;;;;;;;;;;;;14.67;59.44;99347.88;5033002;28;19928;-71
2023/11/13 10:39:46;;;;;;;;;;;;;;;14.95;60.16;99355.34;5033978;28;20380;-71
2023/11/13 10:42:22;;;;;;;;;;;;;;;14.80;59.06;99359.03;5028268;28;20017;-72
2023/11/13 10:44:49;;;;;;;;;;;;;;;15.25;58.21;99349.19;5030812;28;19924;-72
2023/11/13 10:47:25;;;;;;;;;;;;;;;15.06;57.34;99351.97;5030433;28;20010;-72
2023/11/13 10:49:51;;;;;;;;;;;;;;;14.84;57.54;99346.69;5030886;28;19941;-71
2023/11/13 10:52:17;;;;;;;;;;;;;;;15.11;57.95;99349.69;5030537;28;19921;-70
2023/11/13 10:54:45;;;;;;;;;;;;;;;15.00;56.45;99346.63;5029743;28;19925;-73
2023/11/13 10:57:11;;;;;;;;;;;;;;;15.42;56.35;99350.75;5031460;28;20269;-73
2023/11/13 10:59:36;;;;;;;;;;;;;;;15.70;56.88;99348.88;5032559;28;19928;-73
2023/11/13 11:02:05;;;;;;;;;;;;;;;15.23;55.55;99360.00;5033392;28;20281;-71
2023/11/13 11:04:32;;;;;;;;;;;;;;;15.69;56.21;99347.25;5032305;28;19975;-73
2023/11/13 11:06:57;;;;;;;;;;;;;;;15.78;55.92;99350.63;5024766;28;19917;-73
2023/11/13 11:09:23;;;;;;;;;;;;;;;15.51;56.78;99341.25;5033566;28;20347;-72
2023/11/13 11:11:49;;;;;;;;;;;;;;;15.62;55.96;99347.09;5030266;28;19971;-72
2023/11/13 11:14:29;;;;;;;;;;;;;;;15.41;55.30;99353.94;5031722;28;20030;-73
2023/11/13 11:17:04;;;;;;;;;;;;;;;15.86;56.92;99348.75;5032834;28;20312;-72
2023/11/13 11:19:39;;;;;;;;;;;;;;;15.92;56.86;99350.13;5033316;28;20363;-73
2023/11/13 11:22:09;;;;;;;;;;;;;;;16.21;55.00;99344.19;5031948;28;20378;-73
2023/11/13 11:24:38;;;;;;;;;;;;;;;16.14;53.67;99342.06;5029793;28;20403;-74
2023/11/13 11:27:03;;;;;;;;;;;;;;;15.77;53.18;99342.56;5032281;28;19917;-73
2023/11/13 11:29:40;;;;;;;;;;;;;;;16.21;54.92;99338.53;5032503;28;20384;-73
2023/11/13 11:32:15;;;;;;;;;;;;;;;15.93;55.25;99332.00;5031516;28;19997;-71
2023/11/13 11:34:42;;;;;;;;;;;;;;;16.33;55.08;99332.69;5032915;28;19943;-71
2023/11/13 11:37:12;;;;;;;;;;;;;;;15.90;54.72;99326.28;5032731;28;19971;-71
2023/11/13 11:39:45;;;;;;;;;;;;;;;15.66;56.14;99328.25;5032061;28;19913;-74
2023/11/13 11:42:19;;;;;;;;;;;;;;;15.88;55.33;99321.03;5016419;28;19971;-71
2023/11/13 11:44:46;;;;;;;;;;;;;;;15.96;54.88;99319.16;5023470;28;19967;-71
2023/11/13 11:47:25;;;;;;;;;;;;;;;16.40;54.29;99318.69;5030344;28;19986;-72
2023/11/13 11:49:50;;;;;;;;;;;;;;;16.74;54.64;99328.47;5030282;28;19913;-72
2023/11/13 11:52:16;;;;;;;;;;;;;;;16.94;53.66;99321.53;5028479;28;19913;-72
2023/11/13 11:54:42;;;;;;;;;;;;;;;17.06;53.41;99328.97;5029587;28;19925;-71
2023/11/13 11:57:07;;;;;;;;;;;;;;;16.93;53.99;99327.53;5029688;28;19914;-72
2023/11/13 11:59:33;;;;;;;;;;;;;;;16.92;53.88;99315.44;5029853;28;19920;-73
2023/11/13 12:02:00;;;;;;;;;;;;;;;16.89;53.40;99299.25;5028658;28;19917;-71
2023/11/13 12:04:26;;;;;;;;;;;;;;;16.86;53.63;99308.47;5028359;28;20012;-71
2023/11/13 12:06:54;;;;;;;;;;;;;;;17.14;52.03;99310.13;5026799;28;20003;-71
2023/11/13 12:09:21;;;;;;;;;;;;;;;17.10;52.83;99318.53;5029384;28;19914;-70
2023/11/13 12:11:48;;;;;;;;;;;;;;;17.10;53.55;99312.91;5029313;28;20016;-70
2023/11/13 12:14:14;;;;;;;;;;;;;;;17.15;51.64;99317.41;5030075;28;19940;-71
2023/11/13 12:16:39;;;;;;;;;;;;;;;17.24;51.42;99320.72;5028945;28;20399;-70
2023/11/13 12:19:04;;;;;;;;;;;;;;;17.42;51.91;99317.31;5028664;28;19924;-71
2023/11/13 12:21:30;;;;;;;;;;;;;;;17.44;51.68;99323.41;5029691;28;19924;-72
2023/11/13 12:23:59;;;;;;;;;;;;;;;17.50;52.14;99319.03;5029403;28;19913;-72
2023/11/13 12:26:24;;;;;;;;;;;;;;;17.50;51.52;99324.69;5026512;28;20373;-73
2023/11/13 12:28:49;;;;;;;;;;;;;;;17.43;50.07;99321.78;5025355;28;20025;-73
2023/11/13 12:31:18;;;;;;;;;;;;;;;17.36;51.41;99321.66;5026943;28;20323;-73
2023/11/13 12:33:45;;;;;;;;;;;;;;;17.14;51.35;99324.25;5028615;28;20391;-73
2023/11/13 12:36:11;;;;;;;;;;;;;;;16.81;52.17;99326.56;5028686;28;19917;-73
2023/11/13 12:38:36;;;;;;;;;;;;;;;16.87;51.12;99315.75;5027446;28;20422;-74
2023/11/13 12:41:03;;;;;;;;;;;;;;;16.70;52.33;99317.13;5022199;28;20011;-74